Weather at Lennart Meri Tallinn Airport

Public forecast

Using degrees Celsius for public forecast. Weather courtesy of forecast.io.

Current aviation weather report (METAR) for Lennart Meri Tallinn Airport

Report is more than 6 hours old.

2022/11/14 15:20 (retrieved 2 years ago)

EETN 141520Z 18006KT 1600 0800E R26/2000U BR BCFG OVC001 03/03 Q1024 TEMPO 0700 FG

Aviation forecast (TAF) for Lennart Meri Tallinn Airport

Forecast is more than 12 hours old.

2023/02/22 18:33 (retrieved 1 year ago)

TAF TAF EETN 221730Z 2218/2318 VRB02KT 9999 BKN017 PROB40 TEMPO 2220/2305 1200 BR BCFG BKN006 BECMG 2304/2306 19012KT TEMPO 2305/2308 BKN004 BKN008 TEMPO 2311/2318 3000 SN TEMPO 2312/2316 19015G25KT DRSN BKN010